Time;durP1;ratioP1;P1;durP2;ratioP2;P2;SDS_P1;SDS_P2;PMS_P1;PMS_P2;Temp;Humidity;BMP_temperature;BMP_pressure;BME280_temperature;BME280_humidity;BME280_pressure;Samples;Min_cycle;Max_cycle;Signal;HPM_P1;HPM_P2
2022/05/18 00:00:58;;;;;;;12.10;11.07;;;;;;;11.91;100.00;97617.09;4959736;28;20285;-58
2022/05/18 00:03:29;;;;;;;12.20;10.97;;;;;;;11.93;100.00;97621.22;4970551;28;20209;-58
2022/05/18 00:06:00;;;;;;;11.73;10.83;;;;;;;11.84;100.00;97622.31;4954060;28;20231;-58
2022/05/18 00:08:35;;;;;;;11.93;10.97;;;;;;;11.75;100.00;97624.22;4941409;28;20217;-57
2022/05/18 00:11:07;;;;;;;11.83;10.80;;;;;;;11.76;100.00;97623.22;4949269;28;20232;-57
2022/05/18 00:13:35;;;;;;;11.83;10.90;;;;;;;11.75;100.00;97623.41;4934964;28;20230;-57
2022/05/18 00:16:04;;;;;;;12.80;11.80;;;;;;;11.67;100.00;97622.44;4971128;28;20639;-57
2022/05/18 00:18:32;;;;;;;13.40;12.20;;;;;;;11.65;100.00;97623.66;4967812;28;20205;-54
2022/05/18 00:21:01;;;;;;;12.90;11.83;;;;;;;11.60;100.00;97621.53;4953177;28;20220;-57
2022/05/18 00:23:31;;;;;;;12.70;11.70;;;;;;;11.65;100.00;97618.34;4937489;28;20323;-56
2022/05/18 00:26:00;;;;;;;13.60;12.43;;;;;;;11.58;100.00;97620.88;4970278;28;20225;-57
2022/05/18 00:28:28;;;;;;;13.73;12.53;;;;;;;11.58;100.00;97626.19;4948815;28;20232;-58
2022/05/18 00:30:58;;;;;;;14.17;12.80;;;;;;;11.58;100.00;97623.53;4954069;28;20241;-58
2022/05/18 00:33:26;;;;;;;13.30;12.10;;;;;;;11.61;100.00;97623.19;4966648;28;20288;-55
2022/05/18 00:35:56;;;;;;;13.97;12.77;;;;;;;11.60;100.00;97623.38;4954372;28;20226;-61
2022/05/18 00:38:25;;;;;;;13.77;12.67;;;;;;;11.63;100.00;97623.00;4928875;28;20320;-55
2022/05/18 00:40:55;;;;;;;13.97;12.50;;;;;;;11.71;100.00;97630.91;4969688;28;20211;-57
2022/05/18 00:43:38;;;;;;;12.77;11.67;;;;;;;11.78;100.00;97628.34;4928826;28;20281;-58
2022/05/18 00:46:08;;;;;;;13.80;12.60;;;;;;;11.88;100.00;97636.88;4954829;28;20291;-60
2022/05/18 00:48:37;;;;;;;12.93;11.87;;;;;;;11.98;100.00;97633.97;4966367;28;20380;-57
2022/05/18 00:51:07;;;;;;;14.20;12.90;;;;;;;12.09;100.00;97630.88;4957892;28;20291;-59
2022/05/18 00:53:39;;;;;;;13.90;12.73;;;;;;;12.16;100.00;97629.13;4958057;28;20864;-58
2022/05/18 00:56:15;;;;;;;12.43;11.37;;;;;;;12.32;100.00;97626.47;4934492;28;20213;-54
2022/05/18 00:58:48;;;;;;;13.03;11.93;;;;;;;12.33;100.00;97633.44;4967925;28;20253;-57
2022/05/18 01:01:16;;;;;;;11.60;10.70;;;;;;;12.33;100.00;97633.44;4931185;28;20834;-61
2022/05/18 01:03:48;;;;;;;12.20;11.13;;;;;;;12.35;100.00;97631.41;4968476;28;20361;-56
2022/05/18 01:06:24;;;;;;;12.77;11.77;;;;;;;12.35;100.00;97634.06;4954634;28;20306;-61
2022/05/18 01:08:55;;;;;;;13.20;12.10;;;;;;;12.26;100.00;97630.69;4965328;28;20657;-58
2022/05/18 01:11:25;;;;;;;11.97;11.07;;;;;;;12.25;100.00;97643.16;4927772;28;20253;-59
2022/05/18 01:13:53;;;;;;;13.00;11.80;;;;;;;12.20;100.00;97644.69;4966960;28;20686;-56
2022/05/18 01:16:22;;;;;;;13.33;12.20;;;;;;;12.21;100.00;97644.53;4931134;28;20214;-54
2022/05/18 01:18:51;;;;;;;13.47;12.37;;;;;;;12.15;100.00;97643.41;4970110;28;20205;-58
2022/05/18 01:21:20;;;;;;;12.13;11.23;;;;;;;12.09;100.00;97646.81;4953951;28;20623;-57
2022/05/18 01:23:54;;;;;;;13.07;11.77;;;;;;;12.00;100.00;97654.03;4970756;28;20683;-55
2022/05/18 01:26:35;;;;;;;12.60;11.60;;;;;;;11.91;100.00;97640.97;4932442;28;20218;-55
2022/05/18 01:29:05;;;;;;;11.67;10.80;;;;;;;11.80;100.00;97644.94;4965527;28;20241;-56
2022/05/18 01:31:45;;;;;;;12.77;11.77;;;;;;;11.71;100.00;97644.16;4948789;28;20256;-59
2022/05/18 01:34:15;;;;;;;12.63;11.53;;;;;;;11.62;100.00;97645.25;4955285;28;20238;-58
2022/05/18 01:36:43;;;;;;;13.67;12.57;;;;;;;11.50;100.00;97647.50;4971140;28;20214;-56
2022/05/18 01:39:14;;;;;;;13.70;12.50;;;;;;;11.38;100.00;97647.94;4949430;28;20755;-58
2022/05/18 01:41:50;;;;;;;11.77;10.87;;;;;;;11.27;100.00;97643.84;4935722;28;20301;-57
2022/05/18 01:44:18;;;;;;;12.83;11.83;;;;;;;11.20;100.00;97642.06;4967931;28;20287;-59
2022/05/18 01:46:48;;;;;;;11.87;10.87;;;;;;;11.12;100.00;97654.41;4946010;28;20305;-55
2022/05/18 01:49:17;;;;;;;13.90;12.60;;;;;;;11.10;100.00;97660.88;4953375;28;20639;-56
2022/05/18 01:51:47;;;;;;;13.33;12.23;;;;;;;11.04;100.00;97649.16;4970730;28;20210;-58
2022/05/18 01:54:15;;;;;;;13.10;12.00;;;;;;;11.01;100.00;97657.47;4952820;28;20900;-56
2022/05/18 01:56:45;;;;;;;13.60;12.50;;;;;;;10.99;100.00;97662.13;4964726;28;20316;-56
2022/05/18 01:59:14;;;;;;;13.67;12.50;;;;;;;11.03;100.00;97657.28;4932855;28;20419;-60
2022/05/18 02:01:44;;;;;;;13.17;12.07;;;;;;;10.97;100.00;97666.75;4963107;28;20206;-61
2022/05/18 02:04:13;;;;;;;14.20;13.00;;;;;;;10.99;100.00;97667.41;4930718;28;20648;-61
2022/05/18 02:06:42;;;;;;;13.87;12.77;;;;;;;10.97;100.00;97672.88;4970204;28;21282;-59
2022/05/18 02:09:10;;;;;;;15.33;13.93;;;;;;;10.89;100.00;97669.44;4942878;28;20397;-56
2022/05/18 02:18:48;;;;;;;13.93;12.67;;;;;;;10.76;100.00;97677.94;4936661;28;20225;-58
2022/05/18 02:21:16;;;;;;;13.97;12.77;;;;;;;10.72;100.00;97685.44;4958781;28;20210;-56
2022/05/18 02:23:44;;;;;;;14.13;12.93;;;;;;;10.66;100.00;97683.47;4964852;28;20214;-59
2022/05/18 02:26:15;;;;;;;13.87;12.77;;;;;;;10.64;100.00;97693.44;4944434;28;20213;-56
2022/05/18 02:28:44;;;;;;;14.47;13.27;;;;;;;10.57;100.00;97690.63;4947408;28;20213;-59
2022/05/18 02:31:13;;;;;;;14.27;12.93;;;;;;;10.59;100.00;97691.28;4947893;28;20233;-53
2022/05/18 02:33:42;;;;;;;15.10;13.90;;;;;;;10.61;100.00;97685.81;4957366;28;20329;-58
2022/05/18 02:36:12;;;;;;;14.87;13.67;;;;;;;10.61;100.00;97686.63;4947398;28;20206;-58
2022/05/18 02:38:42;;;;;;;14.47;13.20;;;;;;;10.59;100.00;97690.44;4962889;28;20213;-57
2022/05/18 02:41:11;;;;;;;16.03;14.37;;;;;;;10.59;100.00;97682.50;4941764;28;20214;-57
2022/05/18 02:43:40;;;;;;;15.23;13.83;;;;;;;10.61;100.00;97691.94;4962897;28;20692;-56
2022/05/18 02:46:11;;;;;;;15.73;14.33;;;;;;;10.66;100.00;97691.44;4921484;28;20222;-56
2022/05/18 02:48:40;;;;;;;14.43;13.03;;;;;;;10.70;100.00;97682.94;4958023;28;20222;-58
2022/05/18 02:51:10;;;;;;;16.10;14.70;;;;;;;10.74;100.00;97690.56;4923557;28;20938;-57
2022/05/18 02:53:40;;;;;;;15.23;13.93;;;;;;;10.74;100.00;97688.75;4967846;28;20230;-58
2022/05/18 02:56:09;;;;;;;14.13;12.90;;;;;;;10.78;100.00;97690.03;4942775;28;20968;-58
2022/05/18 02:58:42;;;;;;;15.43;14.13;;;;;;;10.82;100.00;97685.25;4961069;28;20322;-56
2022/05/18 03:01:12;;;;;;;14.63;13.43;;;;;;;10.81;100.00;97680.94;4926291;28;21295;-59
2022/05/18 03:03:41;;;;;;;14.73;13.53;;;;;;;10.88;100.00;97689.00;4961223;28;20261;-59
2022/05/18 03:06:10;;;;;;;14.67;13.43;;;;;;;10.93;100.00;97684.84;4937281;28;20209;-59
2022/05/18 03:08:41;;;;;;;14.83;13.40;;;;;;;11.00;100.00;97679.69;4936768;28;20214;-58
2022/05/18 03:11:10;;;;;;;15.37;13.87;;;;;;;11.09;100.00;97678.63;4961266;28;20199;-58
2022/05/18 03:13:38;;;;;;;14.93;13.70;;;;;;;11.23;100.00;97684.16;4947745;28;20432;-59
2022/05/18 03:16:07;;;;;;;15.07;13.77;;;;;;;11.34;100.00;97685.59;4964380;28;20275;-60
2022/05/18 03:18:36;;;;;;;15.87;14.47;;;;;;;11.47;100.00;97690.31;4929951;28;20786;-57
2022/05/18 03:23:52;;;;;;;15.10;13.77;;;;;;;11.67;100.00;97688.00;4950612;28;20926;-60
2022/05/18 03:26:22;;;;;;;15.13;13.73;;;;;;;11.71;100.00;97695.41;4967551;28;20205;-55
2022/05/18 03:28:54;;;;;;;15.17;13.87;;;;;;;11.73;100.00;97700.56;4952455;28;20209;-56
2022/05/18 03:31:23;;;;;;;15.83;14.60;;;;;;;11.78;100.00;97705.34;4961646;28;20212;-59
2022/05/18 03:33:52;;;;;;;14.87;13.60;;;;;;;11.82;100.00;97714.59;4930064;28;20333;-56
2022/05/18 03:36:20;;;;;;;13.03;12.03;;;;;;;11.86;100.00;97710.56;4941378;28;20222;-58
2022/05/18 03:38:49;;;;;;;14.00;12.67;;;;;;;11.87;100.00;97706.91;4951479;28;20213;-58
2022/05/18 03:41:20;;;;;;;13.73;12.50;;;;;;;11.84;100.00;97708.09;4960737;28;20209;-59
2022/05/18 03:43:48;;;;;;;15.43;13.97;;;;;;;11.83;100.00;97706.44;4952446;28;20210;-56
2022/05/18 03:46:17;;;;;;;12.10;11.13;;;;;;;11.81;100.00;97704.97;4960638;28;20202;-58
2022/05/18 03:48:45;;;;;;;13.13;12.03;;;;;;;11.75;100.00;97711.81;4932236;28;20772;-59
2022/05/18 03:51:16;;;;;;;14.23;13.07;;;;;;;11.71;100.00;97718.50;4943345;28;20201;-59
2022/05/18 03:53:45;;;;;;;13.67;12.47;;;;;;;11.63;100.00;97731.84;4951443;28;20700;-54
2022/05/18 03:56:13;;;;;;;14.53;13.30;;;;;;;11.62;100.00;97732.84;4960545;28;20209;-59
2022/05/18 03:58:43;;;;;;;14.80;13.50;;;;;;;11.60;100.00;97733.00;4950449;28;20210;-57
2022/05/18 04:01:11;;;;;;;14.47;12.83;;;;;;;11.62;100.00;97748.75;4961430;28;20209;-60
2022/05/18 04:03:41;;;;;;;13.00;11.90;;;;;;;11.64;100.00;97744.91;4965252;28;20265;-60
2022/05/18 04:06:10;;;;;;;13.70;12.57;;;;;;;11.62;100.00;97746.09;4932853;28;20304;-57
2022/05/18 04:08:38;;;;;;;14.07;12.97;;;;;;;11.57;100.00;97751.94;4936485;28;20218;-56
2022/05/18 04:11:08;;;;;;;14.37;12.97;;;;;;;11.60;100.00;97745.47;4949120;28;20300;-58
2022/05/18 04:13:36;;;;;;;15.17;13.70;;;;;;;11.61;100.00;97745.25;4956160;28;20733;-56
2022/05/18 04:16:06;;;;;;;15.80;14.27;;;;;;;11.62;100.00;97759.38;4957607;28;20264;-58
2022/05/18 04:18:34;;;;;;;13.93;12.77;;;;;;;11.69;100.00;97753.16;4961638;28;20704;-54
2022/05/18 04:21:02;;;;;;;15.57;14.27;;;;;;;11.77;100.00;97746.16;4933170;28;20328;-57
2022/05/18 04:23:31;;;;;;;16.50;14.90;;;;;;;11.83;100.00;97754.22;4943809;28;21830;-59
2022/05/18 04:25:58;;;;;;;15.53;14.20;;;;;;;11.88;100.00;97751.84;4949121;28;20319;-59
2022/05/18 04:28:27;;;;;;;16.23;14.80;;;;;;;11.93;100.00;97758.47;4960528;28;20910;-57
2022/05/18 04:30:55;;;;;;;14.87;13.67;;;;;;;11.97;100.00;97765.09;4933795;28;20241;-59
2022/05/18 04:33:25;;;;;;;15.83;14.43;;;;;;;12.06;100.00;97772.00;4962877;28;20705;-58
2022/05/18 04:35:53;;;;;;;14.47;13.27;;;;;;;12.02;100.00;97778.69;4935705;28;20233;-60
2022/05/18 04:38:23;;;;;;;15.20;13.63;;;;;;;12.08;100.00;97775.31;4963413;28;20210;-54
2022/05/18 04:40:56;;;;;;;16.03;14.03;;;;;;;12.21;100.00;97785.34;4931759;28;20613;-57
2022/05/18 04:43:24;;;;;;;16.13;14.63;;;;;;;12.44;100.00;97781.78;4970973;28;20233;-59
2022/05/18 04:45:55;;;;;;;14.33;13.23;;;;;;;12.69;100.00;97786.84;4954182;28;20233;-60
2022/05/18 04:48:25;;;;;;;16.70;15.20;;;;;;;12.82;100.00;97784.38;4968524;28;20240;-57
2022/05/18 04:50:54;;;;;;;14.13;12.93;;;;;;;12.93;100.00;97790.25;4939309;28;20740;-59
2022/05/18 04:53:22;;;;;;;15.80;14.40;;;;;;;12.99;100.00;97794.84;4967892;28;20225;-55
2022/05/18 04:55:51;;;;;;;15.70;13.73;;;;;;;12.98;100.00;97796.66;4940439;28;20384;-59
2022/05/18 04:58:19;;;;;;;14.50;13.30;;;;;;;12.98;100.00;97791.34;4966455;28;20212;-58
2022/05/18 05:00:52;;;;;;;13.63;12.33;;;;;;;13.10;100.00;97798.88;4962796;28;20301;-61
2022/05/18 05:03:20;;;;;;;13.17;12.13;;;;;;;13.08;100.00;97799.06;4964465;28;20678;-56
2022/05/18 05:05:53;;;;;;;13.63;12.53;;;;;;;13.18;100.00;97807.56;4937223;28;20288;-59
2022/05/18 05:08:22;;;;;;;13.33;12.13;;;;;;;13.24;100.00;97807.81;4969971;28;21545;-56
2022/05/18 05:10:50;;;;;;;13.23;12.13;;;;;;;13.40;100.00;97804.13;4952703;28;20745;-58
2022/05/18 05:13:18;;;;;;;13.83;12.73;;;;;;;13.55;100.00;97810.28;4945700;28;22201;-56
2022/05/18 05:15:46;;;;;;;13.53;12.37;;;;;;;13.56;100.00;97811.09;4942928;28;20688;-57
2022/05/18 05:18:14;;;;;;;13.60;12.40;;;;;;;13.80;100.00;97814.44;4957671;28;20596;-59
2022/05/18 05:20:42;;;;;;;13.87;12.80;;;;;;;13.97;100.00;97821.16;4967191;28;20812;-59
2022/05/18 05:23:12;;;;;;;13.77;12.57;;;;;;;14.21;100.00;97810.34;4934082;28;20228;-59
2022/05/18 05:25:40;;;;;;;13.27;12.07;;;;;;;14.33;100.00;97804.25;4960790;28;20305;-55
2022/05/18 05:28:09;;;;;;;13.17;12.07;;;;;;;14.52;100.00;97807.28;4947974;28;20779;-59
2022/05/18 05:30:37;;;;;;;13.23;12.23;;;;;;;14.58;100.00;97801.16;4964948;28;20296;-59
2022/05/18 05:33:06;;;;;;;12.87;11.87;;;;;;;14.82;100.00;97800.94;4960349;28;20424;-58
2022/05/18 05:35:34;;;;;;;13.20;12.00;;;;;;;14.90;100.00;97796.28;4965690;28;20311;-58
2022/05/18 05:38:02;;;;;;;11.17;10.27;;;;;;;14.90;100.00;97796.28;4936925;28;20375;-57
2022/05/18 05:40:31;;;;;;;11.77;10.80;;;;;;;15.04;100.00;97794.50;4966061;28;20284;-61
2022/05/18 05:42:59;;;;;;;12.90;11.63;;;;;;;15.12;100.00;97793.50;4935425;28;20227;-60
2022/05/18 05:45:28;;;;;;;12.70;11.70;;;;;;;15.15;100.00;97792.28;4964572;28;20650;-60
2022/05/18 05:47:58;;;;;;;13.30;11.90;;;;;;;15.09;100.00;97796.56;4965217;28;20241;-57
2022/05/18 05:50:27;;;;;;;16.00;14.63;;;;;;;15.02;100.00;97793.88;4955894;28;20332;-60
2022/05/18 05:52:55;;;;;;;17.23;15.63;;;;;;;14.98;100.00;97789.13;4952697;28;20297;-59
2022/05/18 05:55:23;;;;;;;13.80;12.70;;;;;;;15.10;100.00;97782.19;4929913;28;20238;-58
2022/05/18 05:57:54;;;;;;;14.50;12.43;;;;;;;15.03;100.00;97786.69;4948510;28;20216;-58
2022/05/18 06:00:23;;;;;;;12.10;10.93;;;;;;;14.70;100.00;97785.50;4954486;28;20534;-56
2022/05/18 06:02:51;;;;;;;11.97;11.07;;;;;;;14.60;100.00;97793.81;4970367;28;20285;-54
2022/05/18 06:05:19;;;;;;;13.57;12.27;;;;;;;14.76;100.00;97795.38;4952332;28;20264;-59
2022/05/18 06:07:48;;;;;;;14.67;13.47;;;;;;;14.90;100.00;97798.09;4953762;28;20301;-56
2022/05/18 06:10:16;;;;;;;12.43;11.33;;;;;;;15.22;100.00;97805.69;4932178;28;20304;-59
2022/05/18 06:12:44;;;;;;;12.67;11.53;;;;;;;15.57;100.00;97811.75;4942473;28;20360;-56
2022/05/18 06:15:14;;;;;;;12.03;11.07;;;;;;;16.00;100.00;97816.00;4952338;28;20669;-57
2022/05/18 06:17:42;;;;;;;11.83;10.93;;;;;;;15.99;100.00;97827.72;4967813;28;20320;-57
2022/05/18 06:20:11;;;;;;;12.30;11.20;;;;;;;16.19;100.00;97843.78;4966702;28;20292;-56
2022/05/18 06:22:39;;;;;;;10.13;9.23;;;;;;;16.15;100.00;97842.56;4952372;28;20293;-57
2022/05/18 06:25:11;;;;;;;10.13;9.33;;;;;;;16.48;100.00;97839.06;4919552;28;20226;-56
2022/05/18 06:27:39;;;;;;;10.50;9.67;;;;;;;16.36;100.00;97840.69;4967937;28;21045;-58
2022/05/18 06:30:08;;;;;;;9.20;8.40;;;;;;;16.29;100.00;97843.38;4934187;28;20214;-56
2022/05/18 06:32:38;;;;;;;9.67;8.97;;;;;;;16.24;100.00;97840.47;4964802;28;20324;-59
2022/05/18 06:35:07;;;;;;;9.77;9.07;;;;;;;16.23;100.00;97846.06;4967843;28;20230;-55
2022/05/18 06:37:35;;;;;;;9.63;8.93;;;;;;;16.71;100.00;97843.16;4951171;28;20308;-57
2022/05/18 06:40:04;;;;;;;10.43;9.67;;;;;;;16.98;100.00;97847.69;4949777;28;20234;-58
2022/05/18 06:42:33;;;;;;;13.27;12.17;;;;;;;17.25;100.00;97845.78;4929158;28;20220;-61
2022/05/18 06:45:03;;;;;;;10.23;9.53;;;;;;;17.40;100.00;97852.72;4951553;28;20236;-56
2022/05/18 06:47:32;;;;;;;10.10;9.20;;;;;;;17.58;100.00;97852.84;4968548;28;20339;-56
2022/05/18 06:50:01;;;;;;;9.97;9.17;;;;;;;17.72;100.00;97858.16;4966954;28;20225;-58
2022/05/18 06:52:29;;;;;;;10.67;9.77;;;;;;;17.87;100.00;97858.69;4955796;28;20233;-61
2022/05/18 06:54:58;;;;;;;10.60;9.80;;;;;;;18.06;100.00;97853.47;4957058;28;20300;-58
2022/05/18 06:57:29;;;;;;;10.00;9.30;;;;;;;18.11;100.00;97852.81;4927060;28;20789;-56
2022/05/18 06:59:58;;;;;;;8.93;8.30;;;;;;;18.42;100.00;97853.84;4968132;28;20218;-59
2022/05/18 07:02:26;;;;;;;10.07;9.37;;;;;;;18.41;100.00;97844.97;4951733;28;20241;-59
2022/05/18 07:04:54;;;;;;;10.43;9.63;;;;;;;18.62;100.00;97840.25;4967753;28;20591;-59
2022/05/18 07:07:24;;;;;;;9.90;9.10;;;;;;;18.46;100.00;97853.19;4960481;28;20215;-59
2022/05/18 07:09:52;;;;;;;10.10;9.37;;;;;;;18.50;100.00;97853.56;4958511;28;20309;-59
2022/05/18 07:12:21;;;;;;;11.23;10.30;;;;;;;18.61;100.00;97852.88;4922575;28;20217;-56
2022/05/18 07:14:49;;;;;;;10.00;9.23;;;;;;;18.83;100.00;97839.03;4971066;28;20257;-57
2022/05/18 07:17:20;;;;;;;10.17;9.37;;;;;;;18.96;100.00;97851.50;4944605;28;20209;-57
2022/05/18 07:19:48;;;;;;;8.50;7.83;;;;;;;18.93;100.00;97849.28;4966516;28;20208;-57
2022/05/18 07:22:16;;;;;;;9.10;8.17;;;;;;;18.95;100.00;97848.00;4964867;28;20502;-59
2022/05/18 07:24:46;;;;;;;7.97;7.37;;;;;;;19.03;100.00;97849.59;4954423;28;20906;-57
2022/05/18 07:27:14;;;;;;;7.67;6.97;;;;;;;18.98;100.00;97849.44;4951590;28;20301;-59
2022/05/18 07:29:42;;;;;;;8.33;7.23;;;;;;;19.04;100.00;97845.06;4949217;28;20279;-59
2022/05/18 07:32:12;;;;;;;7.23;6.53;;;;;;;19.16;100.00;97850.53;4965407;28;20213;-58
2022/05/18 07:34:41;;;;;;;7.40;6.90;;;;;;;19.34;100.00;97838.97;4952130;28;20477;-59
2022/05/18 07:37:09;;;;;;;7.77;7.03;;;;;;;19.45;100.00;97848.13;4964245;28;20750;-58
2022/05/18 07:39:38;;;;;;;8.80;8.00;;;;;;;19.27;100.00;97841.72;4956397;28;21026;-61
2022/05/18 07:42:09;;;;;;;8.70;7.90;;;;;;;19.39;100.00;97847.16;4954835;28;20766;-57
2022/05/18 07:44:38;;;;;;;6.03;5.33;;;;;;;19.44;100.00;97846.47;4936734;28;20372;-59
2022/05/18 07:47:07;;;;;;;6.40;5.80;;;;;;;19.45;100.00;97837.38;4966427;28;20352;-57
2022/05/18 07:49:36;;;;;;;6.90;6.27;;;;;;;19.61;100.00;97844.81;4946920;28;20460;-59
2022/05/18 07:52:05;;;;;;;5.37;5.07;;;;;;;19.78;100.00;97852.25;4969496;28;20264;-57
2022/05/18 07:54:33;;;;;;;7.37;5.77;;;;;;;19.83;100.00;97849.69;4955166;28;20408;-58
2022/05/18 07:57:02;;;;;;;6.10;5.70;;;;;;;19.88;100.00;97863.28;4965464;28;20800;-55
2022/05/18 07:59:31;;;;;;;8.70;7.90;;;;;;;19.99;100.00;97858.22;4915592;28;20604;-58
2022/05/18 08:01:59;;;;;;;5.37;5.07;;;;;;;19.77;100.00;97867.56;4962789;28;20213;-56
2022/05/18 08:04:27;;;;;;;6.47;5.93;;;;;;;19.94;100.00;97864.28;4940211;28;20737;-58
2022/05/18 08:06:56;;;;;;;6.30;5.70;;;;;;;19.71;100.00;97865.78;4969618;28;20583;-56
2022/05/18 08:09:24;;;;;;;5.60;5.20;;;;;;;19.90;100.00;97863.94;4963536;28;20325;-57
2022/05/18 08:17:26;;;;;;;6.57;6.10;;;;;;;20.10;100.00;97854.75;4967155;28;20766;-59
2022/05/18 08:19:54;;;;;;;6.00;5.60;;;;;;;20.08;100.00;97860.38;4938956;28;20794;-58
2022/05/18 08:22:22;;;;;;;5.43;5.03;;;;;;;20.27;100.00;97854.06;4971157;28;20301;-60
2022/05/18 08:24:50;;;;;;;5.67;5.37;;;;;;;20.23;100.00;97859.09;4963836;28;20226;-59
2022/05/18 08:27:18;;;;;;;5.57;5.17;;;;;;;20.43;100.00;97858.81;4955065;28;20230;-58
2022/05/18 08:29:47;;;;;;;5.30;4.90;;;;;;;20.38;100.00;97850.59;4924074;28;20298;-57
2022/05/18 08:32:15;;;;;;;5.30;4.83;;;;;;;20.41;100.00;97852.84;4974136;28;20214;-58
2022/05/18 08:34:43;;;;;;;5.03;4.67;;;;;;;20.31;100.00;97857.97;4954543;28;20330;-57
2022/05/18 08:37:11;;;;;;;5.33;4.90;;;;;;;20.34;100.00;97855.63;4954071;28;20915;-60
2022/05/18 08:39:40;;;;;;;4.97;4.50;;;;;;;20.41;100.00;97855.53;4967242;28;20209;-57
2022/05/18 08:42:08;;;;;;;5.97;4.73;;;;;;;20.32;100.00;97860.41;4970591;28;20230;-59
2022/05/18 08:44:37;;;;;;;5.20;4.90;;;;;;;20.43;100.00;97857.97;4920575;28;21858;-57
2022/05/18 08:47:20;;;;;;;6.53;6.03;;;;;;;20.56;100.00;97856.94;4971708;28;20316;-59
2022/05/18 08:49:57;;;;;;;4.67;4.37;;;;;;;20.68;100.00;97858.59;4952045;28;20750;-58
2022/05/18 08:52:32;;;;;;;5.87;5.37;;;;;;;20.77;100.00;97864.47;4948714;28;20206;-57
2022/05/18 08:55:13;;;;;;;5.40;4.90;;;;;;;20.80;100.00;97852.41;4969456;28;20273;-56
2022/05/18 08:57:43;;;;;;;5.93;5.43;;;;;;;20.97;100.00;97857.91;4969322;28;20532;-55
2022/05/18 09:00:16;;;;;;;5.77;5.37;;;;;;;21.06;100.00;97853.84;4923672;28;20301;-58
2022/05/18 09:02:47;;;;;;;5.70;5.20;;;;;;;21.43;100.00;97854.59;4968121;28;20201;-56
2022/05/18 09:05:27;;;;;;;7.03;5.63;;;;;;;21.44;100.00;97857.03;4963746;28;20237;-60
2022/05/18 09:08:03;;;;;;;4.70;4.40;;;;;;;21.44;100.00;97856.25;4950233;28;20213;-56
2022/05/18 09:10:34;;;;;;;8.50;5.27;;;;;;;21.30;100.00;97855.69;4967295;28;20248;-59
2022/05/18 09:13:02;;;;;;;5.00;4.70;;;;;;;21.47;100.00;97853.06;4969783;28;20321;-57
2022/05/18 09:15:36;;;;;;;4.93;4.63;;;;;;;21.53;100.00;97852.91;4918555;28;20904;-54
2022/05/18 09:18:13;;;;;;;4.60;4.30;;;;;;;21.58;100.00;97851.38;4969176;28;20214;-55
2022/05/18 09:20:47;;;;;;;4.93;4.53;;;;;;;21.62;100.00;97853.34;4969703;28;20973;-55
2022/05/18 09:23:45;;;;;;;5.30;4.67;;;;;;;21.71;100.00;97847.63;4945441;28;20217;-57
2022/05/18 09:26:28;;;;;;;5.20;4.70;;;;;;;21.65;100.00;97850.22;4952445;28;20250;-57
2022/05/18 09:29:05;;;;;;;4.07;3.87;;;;;;;21.90;97.72;97856.34;4968735;28;20780;-55
2022/05/18 09:31:43;;;;;;;4.70;4.10;;;;;;;21.78;93.04;97862.59;4920530;28;21506;-58
2022/05/18 09:34:22;;;;;;;4.13;3.83;;;;;;;21.85;94.47;97859.78;4965981;28;20718;-58
2022/05/18 09:37:06;;;;;;;5.17;3.87;;;;;;;21.73;93.77;97858.97;4963943;28;20310;-60
2022/05/18 09:39:45;;;;;;;4.00;3.80;;;;;;;21.77;93.75;97866.34;4945512;28;20217;-56
2022/05/18 09:42:15;;;;;;;6.17;5.43;;;;;;;21.65;96.87;97858.31;4965267;28;20579;-58
2022/05/18 09:44:48;;;;;;;6.80;6.20;;;;;;;21.60;95.44;97858.19;4956444;28;20230;-56
2022/05/18 09:47:20;;;;;;;5.43;5.03;;;;;;;21.54;96.45;97861.84;4931820;28;20324;-57
2022/05/18 09:49:51;;;;;;;3.90;3.60;;;;;;;21.73;95.56;97856.28;4968414;28;20280;-56
2022/05/18 09:52:21;;;;;;;3.73;3.43;;;;;;;22.06;90.97;97858.28;4960426;28;20773;-56
2022/05/18 09:54:52;;;;;;;5.13;3.97;;;;;;;22.09;92.43;97855.09;4948772;28;20297;-55
2022/05/18 09:57:24;;;;;;;4.00;3.70;;;;;;;21.94;93.97;97861.00;4966367;28;20315;-58
2022/05/18 09:59:56;;;;;;;4.17;3.87;;;;;;;21.88;89.96;97862.00;4960270;28;20208;-59
2022/05/18 10:08:02;;;;;;;3.67;3.47;;;;;;;22.27;85.18;97859.44;4956588;28;20202;-58
2022/05/18 10:10:32;;;;;;;3.83;3.50;;;;;;;22.26;86.83;97859.69;4947124;28;20299;-57
2022/05/18 10:13:04;;;;;;;3.50;3.30;;;;;;;22.31;83.14;97851.66;4965603;28;20210;-59
2022/05/18 10:16:02;;;;;;;3.80;3.60;;;;;;;22.29;84.36;97847.59;4956730;28;20248;-57
2022/05/18 10:18:36;;;;;;;3.43;3.23;;;;;;;22.44;90.19;97847.84;4929386;28;20812;-58
2022/05/18 10:21:19;;;;;;;6.07;4.07;;;;;;;22.50;85.60;97844.19;4969481;28;20303;-58
2022/05/18 10:23:59;;;;;;;5.20;3.47;;;;;;;22.55;75.76;97840.75;4968823;28;20209;-59
2022/05/18 10:26:29;;;;;;;3.60;3.40;;;;;;;22.58;84.15;97842.16;4944978;28;20201;-55
2022/05/18 10:28:59;;;;;;;3.57;3.37;;;;;;;22.90;75.82;97838.81;4966843;28;20221;-56
2022/05/18 10:31:31;;;;;;;4.40;4.10;;;;;;;23.27;85.46;97836.41;4955540;28;20213;-57
2022/05/18 10:34:17;;;;;;;4.03;3.73;;;;;;;23.24;78.84;97828.81;4964712;28;20207;-57
2022/05/18 10:36:49;;;;;;;3.40;3.20;;;;;;;23.33;73.44;97839.16;4958927;28;20351;-56
2022/05/18 10:39:37;;;;;;;3.97;3.60;;;;;;;23.48;76.20;97842.06;4964717;28;20202;-56
2022/05/18 10:42:17;;;;;;;3.40;3.20;;;;;;;23.05;70.05;97830.97;4934304;28;20302;-59
2022/05/18 10:44:46;;;;;;;3.90;3.13;;;;;;;22.93;76.16;97830.25;4963777;28;21207;-58
2022/05/18 10:47:19;;;;;;;3.27;3.17;;;;;;;22.77;81.69;97829.22;4930760;28;20245;-57
2022/05/18 10:49:48;;;;;;;3.97;3.63;;;;;;;22.73;84.00;97828.88;4966522;28;20428;-56
2022/05/18 10:52:20;;;;;;;3.70;3.50;;;;;;;22.85;81.49;97826.09;4938512;28;20704;-57
2022/05/18 10:54:57;;;;;;;3.33;3.03;;;;;;;22.73;75.51;97823.47;4965502;28;20225;-59
2022/05/18 10:57:33;;;;;;;3.87;3.57;;;;;;;22.86;73.62;97813.38;4963712;28;20240;-58
2022/05/18 11:00:07;;;;;;;3.70;3.47;;;;;;;23.04;70.05;97802.31;4963661;28;20583;-58
2022/05/18 11:02:41;;;;;;;4.10;3.90;;;;;;;23.06;84.70;97816.38;4942632;28;20428;-57
2022/05/18 11:05:20;;;;;;;7.20;6.70;;;;;;;22.93;75.27;97808.63;4925624;28;20293;-59
2022/05/18 11:07:50;;;;;;;4.40;3.93;;;;;;;22.98;74.41;97809.50;4970147;28;20638;-55
2022/05/18 11:10:18;;;;;;;3.50;3.30;;;;;;;23.10;73.20;97803.16;4949464;28;20396;-59
2022/05/18 11:12:49;;;;;;;3.10;2.90;;;;;;;23.73;68.53;97794.75;4968690;28;20233;-58
2022/05/18 11:15:28;;;;;;;3.03;2.83;;;;;;;23.53;66.94;97798.03;4964891;28;20433;-59
2022/05/18 11:18:04;;;;;;;3.47;3.30;;;;;;;23.38;66.33;97796.81;4963064;28;20253;-59
2022/05/18 11:20:51;;;;;;;3.37;3.17;;;;;;;23.82;68.16;97795.09;4932120;28;20331;-51
2022/05/18 11:23:30;;;;;;;5.30;3.50;;;;;;;23.87;64.38;97791.66;4964804;28;20312;-57
2022/05/18 11:26:06;;;;;;;3.70;3.50;;;;;;;23.84;65.05;97796.47;4960545;28;20307;-58
2022/05/18 11:29:11;;;;;;;3.50;3.20;;;;;;;24.30;58.52;97784.47;4967306;28;20634;-58
2022/05/18 11:31:57;;;;;;;3.07;2.87;;;;;;;24.48;66.66;97790.53;4966365;28;20205;-56
2022/05/18 11:34:33;;;;;;;3.70;3.43;;;;;;;24.17;62.41;97791.13;4942803;28;20936;-56
2022/05/18 11:37:13;;;;;;;3.40;2.77;;;;;;;23.98;65.73;97787.97;4930726;28;20212;-58
2022/05/18 11:39:48;;;;;;;3.77;3.67;;;;;;;23.66;66.46;97791.41;4968230;28;20645;-60
2022/05/18 11:42:26;;;;;;;3.40;3.30;;;;;;;23.47;73.39;97791.75;4951270;28;20299;-58
2022/05/18 11:45:05;;;;;;;4.00;3.63;;;;;;;23.66;75.34;97791.41;4967492;28;21053;-58
2022/05/18 11:47:46;;;;;;;3.50;3.20;;;;;;;23.71;65.34;97794.19;4966152;28;20615;-58
2022/05/18 11:50:25;;;;;;;4.20;3.90;;;;;;;23.94;71.63;97789.53;4945431;28;20458;-58
2022/05/18 11:53:15;;;;;;;3.93;3.57;;;;;;;24.87;74.68;97784.06;4933613;28;20301;-58
2022/05/18 11:55:52;;;;;;;3.30;3.10;;;;;;;25.22;65.85;97780.69;4970027;28;20312;-58